Local Weather
17097
page-template-default,page,page-id-17097,bridge-core-1.0.4,ajax_fade,page_not_loaded,,hide_top_bar_on_mobile_header,qode-child-theme-ver-1.0.0,qode-theme-ver-18.0.9,qode-theme-bridge,qode_header_in_grid,wpb-js-composer js-comp-ver-4.11.2.1,vc_responsive
 

LOCAL WEATHER

METAR & TAF for EGTK Oxford

Available data for EGTK from the past hour
OXFORD
Metar
EGTK 040950Z 35006KT 310V040 9999 FEW019 13/07 Q1004

09:50 UTC

Wind: 350° 6kt

Visibility: 9999 m

Sky: FEW 1900 ft

Temp: 13 deg C / 55.4 deg F

Dewpoint: 7 deg C / 44.6 deg F

Pressure: 1004 hPa

TAF
TAF EGTK 040755Z 0409/0418 32010KT 9999 SCT040 PROB30 TEMPO 0416/0418 7000 SHRA